Time;durP1;ratioP1;P1;durP2;ratioP2;P2;SDS_P1;SDS_P2;PMS_P1;PMS_P2;Temp;Humidity;BMP_temperature;BMP_pressure;BME280_temperature;BME280_humidity;BME280_pressure;Samples;Min_cycle;Max_cycle;Signal;HPM_P1;HPM_P2
2023/08/23 00:01:38;;;;;;;16.75;16.05;;;;;;;-141.02;98.55;41106.69;5093017;28;20237;-66
2023/08/23 00:04:05;;;;;;;17.10;16.30;;;;;;;-141.02;98.51;41089.41;5093268;28;20654;-66
2023/08/23 00:06:32;;;;;;;16.73;15.95;;;;;;;-141.02;98.76;41066.41;5092874;28;20285;-63
2023/08/23 00:08:59;;;;;;;17.00;16.20;;;;;;;-141.02;99.12;41062.56;5093468;28;20277;-65
2023/08/23 00:11:26;;;;;;;16.67;15.98;;;;;;;-141.02;99.68;41064.47;5092955;28;20284;-66
2023/08/23 00:13:53;;;;;;;16.83;16.10;;;;;;;-141.02;100.00;41051.03;5092836;28;20293;-63
2023/08/23 00:16:21;;;;;;;16.77;16.08;;;;;;;-141.02;100.00;41005.00;5092784;28;20638;-67
2023/08/23 00:18:50;;;;;;;16.48;15.77;;;;;;;-141.02;100.00;40966.63;5093044;28;20250;-63
2023/08/23 00:21:17;;;;;;;16.58;15.88;;;;;;;-141.02;100.00;40949.34;5092744;28;20251;-65
2023/08/23 00:23:45;;;;;;;16.60;15.90;;;;;;;-141.02;100.00;40958.94;5092885;28;20286;-65
2023/08/23 00:26:12;;;;;;;16.65;15.95;;;;;;;-141.02;100.00;40935.91;5092548;28;20762;-66
2023/08/23 00:28:39;;;;;;;16.67;15.88;;;;;;;-141.02;98.90;40941.69;5092561;28;20280;-63
2023/08/23 00:31:06;;;;;;;16.55;15.77;;;;;;;-141.02;99.27;40935.91;5092798;28;20604;-58
2023/08/23 00:33:35;;;;;;;16.60;15.90;;;;;;;-141.02;100.00;40932.09;5092497;28;20284;-60
2023/08/23 00:36:02;;;;;;;16.33;15.63;;;;;;;-141.02;100.00;40924.41;5092533;28;20202;-59
2023/08/23 00:38:29;;;;;;;16.58;15.88;;;;;;;-141.02;100.00;40855.34;5092705;28;20201;-65
2023/08/23 00:40:56;;;;;;;15.98;15.38;;;;;;;-141.02;100.00;40832.31;5092694;28;20232;-62
2023/08/23 00:43:23;;;;;;;16.00;15.30;;;;;;;-141.02;100.00;40797.78;5092199;28;20312;-64
2023/08/23 00:45:50;;;;;;;16.20;15.50;;;;;;;-141.02;100.00;40790.09;5092556;28;20273;-58
2023/08/23 00:48:17;;;;;;;16.10;15.40;;;;;;;-141.02;100.00;40784.34;5092275;28;20622;-59
2023/08/23 00:50:46;;;;;;;16.23;15.52;;;;;;;-141.02;100.00;40782.44;5092229;28;20284;-64
2023/08/23 00:53:16;;;;;;;16.05;15.38;;;;;;;-141.02;100.00;40786.28;5092492;28;20226;-66
2023/08/23 00:55:43;;;;;;;16.25;15.55;;;;;;;-141.02;100.00;40790.09;5092549;28;20191;-63
2023/08/23 00:58:10;;;;;;;16.70;16.00;;;;;;;-141.02;100.00;40803.53;5092010;28;20265;-66
2023/08/23 01:00:37;;;;;;;16.38;15.68;;;;;;;-141.02;99.81;40803.53;5092444;28;20281;-67
2023/08/23 01:03:05;;;;;;;16.10;15.40;;;;;;;-141.02;100.00;40816.97;5092396;28;20281;-67
2023/08/23 01:05:56;;;;;;;16.70;16.00;;;;;;;-141.02;100.00;40793.94;5092398;28;20272;-67
2023/08/23 01:08:32;;;;;;;16.63;15.93;;;;;;;-141.02;100.00;40763.25;5092019;28;20225;-66
2023/08/23 01:11:05;;;;;;;16.25;15.55;;;;;;;-141.02;100.00;40717.19;5092030;28;20646;-66
2023/08/23 01:14:25;;;;;;;16.38;15.68;;;;;;;-141.02;100.00;40651.97;5092267;28;20233;-66
2023/08/23 01:20:32;;;;;;;15.68;15.07;;;;;;;-141.02;100.00;40525.34;5095667;28;20651;-63
2023/08/23 01:23:37;;;;;;;15.85;15.25;;;;;;;-141.02;100.00;40513.84;5096204;28;20708;-66
2023/08/23 01:26:04;;;;;;;15.90;15.30;;;;;;;-141.02;100.00;40498.50;5096714;28;20197;-66
2023/08/23 01:28:31;;;;;;;15.75;15.15;;;;;;;-141.02;100.00;40494.66;5096335;28;20193;-64
2023/08/23 01:34:26;;;;;;;16.25;15.55;;;;;;;-141.02;100.00;40479.31;5096354;28;20200;-66
2023/08/23 01:40:16;;;;;;;15.60;15.00;;;;;;;-141.02;100.00;40381.47;5096244;28;20181;-66
2023/08/23 01:42:44;;;;;;;15.70;15.10;;;;;;;-141.02;100.00;40429.44;5095788;28;20657;-63
2023/08/23 01:45:11;;;;;;;16.00;15.40;;;;;;;-141.02;100.00;40329.69;5095914;28;20229;-64
2023/08/23 01:47:38;;;;;;;15.73;15.13;;;;;;;-141.02;100.00;40327.75;5095688;28;20293;-63
2023/08/23 01:50:06;;;;;;;15.68;15.07;;;;;;;-141.02;100.00;40322.00;5095960;28;20274;-66
2023/08/23 01:52:33;;;;;;;15.55;14.95;;;;;;;-141.02;100.00;40283.63;5095760;28;20193;-64
2023/08/23 01:55:00;;;;;;;15.85;15.25;;;;;;;-141.02;100.00;40283.63;5095470;28;20276;-63
2023/08/23 01:58:06;;;;;;;14.95;14.45;;;;;;;-141.02;100.00;40252.94;5095405;28;20247;-60
2023/08/23 02:00:33;;;;;;;15.70;15.10;;;;;;;-141.02;100.00;40277.88;5095525;28;20223;-67
2023/08/23 02:03:01;;;;;;;15.70;15.10;;;;;;;-141.02;100.00;40281.72;5095370;28;20751;-61
2023/08/23 02:05:30;;;;;;;15.48;14.88;;;;;;;-141.02;100.00;40304.75;5095591;28;20228;-60
2023/08/23 02:07:57;;;;;;;15.68;15.07;;;;;;;-141.02;100.00;40302.81;5095757;28;20285;-59
2023/08/23 02:10:24;;;;;;;16.33;15.63;;;;;;;-141.02;100.00;40398.75;5095246;28;20277;-63
2023/08/23 02:12:51;;;;;;;16.77;16.08;;;;;;;-141.02;100.00;40410.25;5095444;28;20229;-62
2023/08/23 02:15:19;;;;;;;16.48;15.77;;;;;;;-141.02;100.00;40414.09;5095194;28;20324;-65
2023/08/23 02:25:00;;;;;;;17.13;16.42;;;;;;;-141.02;98.21;40463.97;5095253;28;20217;-64
2023/08/23 02:31:31;;;;;;;17.17;16.38;;;;;;;-141.02;98.62;40460.13;5093675;28;20181;-61
2023/08/23 02:47:38;;;;;;;17.08;16.38;;;;;;;-141.02;100.00;40473.56;4971593;28;20201;-61
2023/08/23 02:50:06;;;;;;;16.42;15.73;;;;;;;-141.02;100.00;40479.31;5032240;28;20338;-59
2023/08/23 02:52:33;;;;;;;16.10;15.40;;;;;;;-141.02;100.00;40473.56;5093311;28;20196;-62
2023/08/23 02:55:00;;;;;;;15.82;15.23;;;;;;;-141.02;100.00;40463.97;5094704;28;20233;-60
2023/08/23 03:00:49;;;;;;;15.98;15.38;;;;;;;-141.02;100.00;40467.81;5094479;28;20204;-62
2023/08/23 03:03:16;;;;;;;15.70;15.10;;;;;;;-141.02;100.00;40452.44;5094542;28;20308;-61
2023/08/23 03:05:55;;;;;;;15.63;15.02;;;;;;;-141.02;100.00;40425.59;5094384;28;20226;-67
2023/08/23 03:08:22;;;;;;;15.13;14.63;;;;;;;-141.02;100.00;40381.47;5094167;28;20190;-65
2023/08/23 03:10:50;;;;;;;15.65;15.05;;;;;;;-141.02;100.00;40341.19;5094324;28;20194;-64
2023/08/23 03:16:40;;;;;;;14.90;14.40;;;;;;;-141.02;100.00;40103.31;5094114;28;20204;-64
2023/08/23 03:19:07;;;;;;;13.70;13.30;;;;;;;-141.02;100.00;39915.34;5094255;28;20197;-66
2023/08/23 03:21:34;;;;;;;14.07;13.57;;;;;;;-141.02;100.00;39900.00;5093907;28;20229;-63
2023/08/23 03:24:01;;;;;;;13.80;13.38;;;;;;;-141.02;100.00;39888.50;5093715;28;20222;-64
2023/08/23 03:26:28;;;;;;;13.60;13.20;;;;;;;-141.02;100.00;39838.63;5094256;28;20251;-68
2023/08/23 03:28:54;;;;;;;13.10;12.70;;;;;;;-141.02;100.00;39807.94;5093998;28;20637;-60
2023/08/23 03:31:21;;;;;;;13.07;12.68;;;;;;;-141.02;100.00;39840.53;5093637;28;20281;-63
2023/08/23 03:33:50;;;;;;;12.60;12.20;;;;;;;-141.02;100.00;39846.28;5093942;28;20197;-64
2023/08/23 03:36:17;;;;;;;12.98;12.57;;;;;;;-141.02;100.00;39938.38;5093595;28;20726;-63
2023/08/23 03:38:44;;;;;;;12.75;12.35;;;;;;;-141.02;100.00;40018.94;5093902;28;20262;-68
2023/08/23 03:41:13;;;;;;;12.50;12.10;;;;;;;-141.02;100.00;40126.34;5093278;28;20576;-64
2023/08/23 03:43:40;;;;;;;12.90;12.50;;;;;;;-141.02;100.00;40168.53;5093246;28;20201;-60
2023/08/23 03:46:08;;;;;;;13.23;12.82;;;;;;;-141.02;100.00;40295.16;5093788;28;20266;-66
2023/08/23 03:48:35;;;;;;;12.80;12.40;;;;;;;-141.02;100.00;40406.41;5093335;28;20229;-66
2023/08/23 03:51:03;;;;;;;12.90;12.50;;;;;;;-141.02;100.00;40460.13;5093560;28;20251;-68
2023/08/23 03:53:30;;;;;;;12.82;12.43;;;;;;;-141.02;100.00;40525.34;5093522;28;20259;-63
2023/08/23 03:55:58;;;;;;;12.98;12.57;;;;;;;-141.02;100.00;40525.34;5093501;28;20213;-64
2023/08/23 03:58:25;;;;;;;11.23;10.93;;;;;;;-141.02;100.00;40598.25;5093055;28;20230;-67
2023/08/23 04:00:53;;;;;;;12.15;11.75;;;;;;;-141.02;100.00;40648.13;5093449;28;20211;-63
2023/08/23 04:03:20;;;;;;;12.55;12.15;;;;;;;-141.02;100.00;40699.94;5093352;28;20300;-66
2023/08/23 04:05:47;;;;;;;12.80;12.40;;;;;;;-141.02;100.00;40753.66;5093114;28;20711;-65
2023/08/23 04:08:16;;;;;;;13.18;12.77;;;;;;;-141.02;100.00;41089.41;5093227;28;20236;-66
2023/08/23 04:10:47;;;;;;;13.82;13.43;;;;;;;-141.02;100.00;41344.63;5092901;28;20204;-63
2023/08/23 04:13:14;;;;;;;13.70;13.30;;;;;;;-141.02;100.00;41411.78;5093170;28;20201;-67
2023/08/23 04:15:42;;;;;;;14.40;13.98;;;;;;;-141.02;100.00;41442.50;5093112;28;20229;-67
2023/08/23 04:18:09;;;;;;;15.05;14.55;;;;;;;-141.02;100.00;41519.25;5092841;28;20240;-65
2023/08/23 04:20:36;;;;;;;15.40;14.90;;;;;;;-141.02;100.00;41588.34;5093029;28;20280;-60
2023/08/23 04:23:03;;;;;;;15.57;14.98;;;;;;;-141.02;100.00;41645.91;5092956;28;20577;-65
2023/08/23 04:25:31;;;;;;;16.15;15.55;;;;;;;-141.02;100.00;41705.41;5092592;28;20316;-67
2023/08/23 04:27:58;;;;;;;15.77;15.18;;;;;;;-141.02;100.00;41745.69;5092928;28;20194;-63
2023/08/23 04:30:25;;;;;;;15.95;15.35;;;;;;;-141.02;100.00;41787.91;5092713;28;20225;-64
2023/08/23 04:32:52;;;;;;;16.60;15.90;;;;;;;-141.02;100.00;41816.72;5092845;28;20280;-63
2023/08/23 04:35:19;;;;;;;15.90;15.30;;;;;;;-141.02;99.74;41870.44;5092822;28;20201;-65
2023/08/23 04:37:46;;;;;;;16.67;15.98;;;;;;;-141.02;99.82;41929.94;5092524;28;20198;-63
2023/08/23 04:40:13;;;;;;;16.48;15.77;;;;;;;-141.02;98.67;41991.34;5092741;28;20198;-66
2023/08/23 04:42:41;;;;;;;16.52;15.82;;;;;;;-141.02;97.61;42014.38;5092423;28;20255;-60
2023/08/23 04:45:09;;;;;;;16.63;15.93;;;;;;;-141.02;96.20;42079.63;5092573;28;20312;-68
2023/08/23 04:47:37;;;;;;;16.65;15.95;;;;;;;-141.02;94.14;42091.16;5092592;28;20200;-64
2023/08/23 04:50:05;;;;;;;17.45;16.65;;;;;;;-141.02;90.92;42110.34;5092275;28;20630;-64
2023/08/23 04:52:32;;;;;;;17.67;16.88;;;;;;;-141.02;90.62;42183.28;5092259;28;20194;-65
2023/08/23 04:54:59;;;;;;;17.77;16.98;;;;;;;-141.02;88.52;42214.00;5091817;28;20247;-62
2023/08/23 04:57:26;;;;;;;18.35;17.45;;;;;;;-141.02;87.44;42175.59;5092309;28;20316;-65
2023/08/23 04:59:55;;;;;;;17.98;17.17;;;;;;;-141.02;86.80;42279.25;5092429;28;20204;-61
2023/08/23 05:02:22;;;;;;;18.15;17.25;;;;;;;-141.02;84.47;42263.91;5092092;28;20194;-62
2023/08/23 05:04:49;;;;;;;18.30;17.40;;;;;;;-141.02;82.82;42331.09;5092089;28;20316;-62
2023/08/23 05:07:16;;;;;;;18.48;17.58;;;;;;;-141.02;82.16;42428.97;5092403;28;20297;-60
2023/08/23 05:09:43;;;;;;;18.42;17.52;;;;;;;-141.02;81.56;42440.50;5092019;28;20280;-62
2023/08/23 05:12:10;;;;;;;18.38;17.48;;;;;;;-141.02;81.65;42405.94;5092348;28;20205;-60
2023/08/23 05:14:37;;;;;;;18.30;17.40;;;;;;;-141.02;81.67;42382.91;5091997;28;20194;-59
2023/08/23 05:17:05;;;;;;;18.23;17.33;;;;;;;-141.02;81.28;42417.47;5092082;28;20280;-65
2023/08/23 05:19:32;;;;;;;17.65;16.85;;;;;;;-141.02;80.19;42444.34;5091956;28;20194;-66
2023/08/23 05:21:59;;;;;;;17.70;16.90;;;;;;;-141.02;78.33;42498.06;5092255;28;20271;-65
2023/08/23 05:24:26;;;;;;;18.00;17.10;;;;;;;-141.02;78.67;42509.59;5092318;28;20766;-62
2023/08/23 05:26:53;;;;;;;17.70;16.90;;;;;;;-141.02;81.50;42490.41;5092171;28;20220;-65
2023/08/23 05:29:20;;;;;;;17.98;17.08;;;;;;;-141.02;83.81;42306.13;5091861;28;20659;-60
2023/08/23 05:31:47;;;;;;;18.33;17.42;;;;;;;-141.02;83.66;42202.47;5091822;28;20216;-62
2023/08/23 05:34:16;;;;;;;18.30;17.40;;;;;;;-141.02;84.22;42183.28;5092131;28;20200;-62
2023/08/23 05:36:43;;;;;;;18.60;17.70;;;;;;;-141.02;84.37;42217.84;5092079;28;20289;-62
2023/08/23 05:39:10;;;;;;;18.25;17.45;;;;;;;-141.02;86.14;42254.31;5091747;28;20280;-61
2023/08/23 05:41:38;;;;;;;18.05;17.25;;;;;;;-141.02;84.62;42333.00;5092239;28;20255;-62
2023/08/23 05:44:05;;;;;;;18.00;17.20;;;;;;;-141.02;83.47;42375.22;5091710;28;20694;-59
2023/08/23 05:46:32;;;;;;;18.30;17.40;;;;;;;-141.02;82.48;42375.22;5091679;28;20236;-57
2023/08/23 05:48:59;;;;;;;18.05;17.15;;;;;;;-141.02;83.43;42359.88;5091924;28;20284;-58
2023/08/23 05:51:27;;;;;;;17.92;17.13;;;;;;;-141.02;82.40;42340.69;5091948;28;20278;-60
2023/08/23 05:53:54;;;;;;;17.42;16.63;;;;;;;-141.02;84.17;42336.84;5091989;28;20648;-63
2023/08/23 05:56:21;;;;;;;17.75;16.95;;;;;;;-141.02;82.55;42221.66;5091809;28;20198;-60
2023/08/23 05:58:48;;;;;;;17.80;17.00;;;;;;;-141.02;80.91;42265.81;5091690;28;20308;-60
2023/08/23 06:01:15;;;;;;;18.05;17.17;;;;;;;-141.02;79.47;42321.47;5092050;28;20232;-58
2023/08/23 06:03:42;;;;;;;17.75;16.95;;;;;;;-141.02;79.56;42428.97;5091442;28;20569;-57
2023/08/23 06:06:10;;;;;;;18.08;17.27;;;;;;;-141.02;78.20;42390.59;5094303;28;20222;-62
2023/08/23 06:08:38;;;;;;;17.77;16.98;;;;;;;-141.02;79.46;42461.59;5095499;28;20194;-63
2023/08/23 06:11:05;;;;;;;17.77;16.98;;;;;;;-141.02;79.35;42463.53;5096001;28;20266;-61
2023/08/23 06:13:32;;;;;;;17.88;17.08;;;;;;;-141.02;79.70;42486.56;5095155;28;20649;-57
2023/08/23 06:15:59;;;;;;;17.88;17.08;;;;;;;-141.02;79.50;42476.97;5095249;28;20285;-62
2023/08/23 06:18:26;;;;;;;18.00;17.20;;;;;;;-141.02;80.60;42471.19;5095603;28;20194;-57
2023/08/23 06:20:53;;;;;;;17.55;16.75;;;;;;;-141.02;80.26;42513.44;5094941;28;20281;-65
2023/08/23 06:23:19;;;;;;;18.20;17.40;;;;;;;-141.02;79.38;42530.72;5095241;28;20323;-61
2023/08/23 06:25:48;;;;;;;18.20;17.40;;;;;;;-141.02;78.47;42542.22;5094832;28;20236;-61
2023/08/23 06:28:15;;;;;;;17.73;16.92;;;;;;;-141.02;79.73;42548.00;5095168;28;20276;-65
2023/08/23 06:30:42;;;;;;;17.45;16.65;;;;;;;-141.02;78.89;42524.94;5094862;28;20604;-64
2023/08/23 06:33:09;;;;;;;18.10;17.30;;;;;;;-141.02;79.41;42551.81;5094813;28;20284;-62
2023/08/23 06:35:36;;;;;;;18.23;17.40;;;;;;;-141.02;79.16;42551.81;5094764;28;20193;-65
2023/08/23 06:38:03;;;;;;;17.80;17.00;;;;;;;-141.02;78.42;42536.47;5095113;28;20222;-57
2023/08/23 06:40:31;;;;;;;17.58;16.88;;;;;;;-141.02;78.80;42615.16;5094762;28;20610;-63
2023/08/23 06:42:59;;;;;;;17.20;16.40;;;;;;;-141.02;77.06;42582.53;5094657;28;20289;-63
2023/08/23 06:45:26;;;;;;;17.42;16.63;;;;;;;-141.02;75.78;42584.47;5094538;28;20261;-65
2023/08/23 06:47:53;;;;;;;17.55;16.75;;;;;;;-141.02;75.20;42613.25;5094508;28;20193;-65
2023/08/23 06:50:20;;;;;;;17.45;16.70;;;;;;;-141.02;75.90;42567.19;5094613;28;20190;-65
2023/08/23 06:52:47;;;;;;;17.65;16.85;;;;;;;-141.02;76.08;42555.66;5094722;28;20262;-64
2023/08/23 06:55:14;;;;;;;17.67;16.88;;;;;;;-141.02;74.60;42561.41;5094788;28;20296;-64
2023/08/23 06:57:41;;;;;;;17.83;17.02;;;;;;;-141.02;74.31;42617.09;5094319;28;20237;-62
2023/08/23 07:00:12;;;;;;;17.80;17.00;;;;;;;-141.02;73.50;42782.19;5094448;28;20276;-65
2023/08/23 07:02:39;;;;;;;18.30;17.50;;;;;;;-141.02;72.97;42809.06;5094445;28;20221;-61
2023/08/23 07:05:06;;;;;;;18.35;17.48;;;;;;;-141.02;72.50;42803.31;5094851;28;20261;-62
2023/08/23 07:07:33;;;;;;;18.55;17.65;;;;;;;-141.02;72.65;42780.25;5094101;28;20229;-63
2023/08/23 07:10:00;;;;;;;19.00;18.10;;;;;;;-141.02;71.05;42682.34;5094115;28;20229;-57
2023/08/23 07:12:28;;;;;;;18.65;17.75;;;;;;;-141.02;71.33;42736.13;5094376;28;20200;-65
2023/08/23 07:14:55;;;;;;;17.73;16.92;;;;;;;-141.02;70.33;42828.25;5094284;28;20204;-64
2023/08/23 07:17:23;;;;;;;17.88;17.08;;;;;;;-141.02;69.85;42905.06;5093706;28;20284;-61
2023/08/23 07:19:50;;;;;;;18.48;17.58;;;;;;;-141.02;69.86;42922.31;5093865;28;20619;-63
2023/08/23 07:22:17;;;;;;;18.15;17.35;;;;;;;-141.02;69.89;43070.16;5094178;28;20206;-65
2023/08/23 07:24:44;;;;;;;18.05;17.25;;;;;;;-141.02;69.03;43158.47;5094104;28;20229;-63
2023/08/23 07:27:11;;;;;;;18.20;17.30;;;;;;;-141.02;67.32;42995.28;5094217;28;20324;-64
2023/08/23 07:29:38;;;;;;;18.70;17.80;;;;;;;-141.02;66.96;42985.69;5094039;28;20216;-66
2023/08/23 07:32:05;;;;;;;18.55;17.65;;;;;;;-141.02;66.61;43043.28;5093666;28;20674;-66
2023/08/23 07:34:34;;;;;;;18.75;17.85;;;;;;;-141.02;66.86;43146.94;5093893;28;20229;-65
2023/08/23 07:37:01;;;;;;;18.35;17.45;;;;;;;-141.02;66.25;43173.81;5093988;28;20209;-64
2023/08/23 07:39:28;;;;;;;17.98;17.17;;;;;;;-141.02;65.76;43097.03;5093826;28;20280;-64
2023/08/23 07:41:55;;;;;;;17.77;16.98;;;;;;;-141.02;65.52;43137.34;5093766;28;20200;-60
2023/08/23 07:44:22;;;;;;;18.10;17.20;;;;;;;-141.02;65.77;43173.81;5092980;28;20675;-65
2023/08/23 07:46:49;;;;;;;18.10;17.20;;;;;;;-141.02;65.52;43385.03;5093564;28;20218;-64
2023/08/23 07:49:17;;;;;;;18.10;17.20;;;;;;;-141.02;63.17;43388.88;5093258;28;20198;-65
2023/08/23 07:51:45;;;;;;;18.52;17.63;;;;;;;-141.02;63.64;43256.38;5093584;28;20201;-64
2023/08/23 07:54:12;;;;;;;17.60;16.70;;;;;;;-141.02;62.73;43373.50;5094075;28;20326;-66
2023/08/23 07:56:39;;;;;;;18.35;17.45;;;;;;;-141.02;61.95;43473.34;5092895;28;20756;-65
2023/08/23 07:59:06;;;;;;;17.77;16.88;;;;;;;-141.02;61.43;43561.69;5093738;28;20276;-65
2023/08/23 08:01:33;;;;;;;17.77;16.88;;;;;;;-141.02;60.56;43546.31;5093057;28;20284;-66
2023/08/23 08:04:00;;;;;;;17.58;16.67;;;;;;;-141.02;60.55;43496.41;5093547;28;20272;-66
2023/08/23 08:06:27;;;;;;;17.55;16.70;;;;;;;-141.02;60.47;43496.41;5092867;28;20317;-63
2023/08/23 08:08:55;;;;;;;17.35;16.55;;;;;;;-141.02;59.34;43596.25;5092942;28;20207;-65
2023/08/23 08:11:22;;;;;;;17.65;16.75;;;;;;;-141.02;60.62;43529.03;5092833;28;20236;-63
2023/08/23 08:13:50;;;;;;;17.65;16.75;;;;;;;-141.02;59.43;43661.53;5092838;28;20247;-62
2023/08/23 08:16:17;;;;;;;17.60;16.70;;;;;;;-141.02;58.60;43861.25;5093082;28;20193;-64
2023/08/23 08:18:44;;;;;;;17.48;16.58;;;;;;;-141.02;57.91;43799.78;5093301;28;20280;-66
2023/08/23 08:21:11;;;;;;;17.33;16.42;;;;;;;-141.02;57.08;43776.75;5092932;28;20553;-60
2023/08/23 08:23:38;;;;;;;16.95;16.08;;;;;;;-141.02;57.14;43939.97;5092654;28;20196;-65
2023/08/23 08:26:06;;;;;;;17.15;16.25;;;;;;;-141.02;56.10;43926.53;5092838;28;20810;-58
2023/08/23 08:28:34;;;;;;;17.08;16.25;;;;;;;-141.02;56.88;43834.34;5092524;28;20194;-57
2023/08/23 08:31:01;;;;;;;17.50;16.60;;;;;;;-141.02;55.51;43976.47;5092534;28;20732;-57
2023/08/23 08:33:28;;;;;;;18.10;17.20;;;;;;;-141.02;55.78;43907.31;5092588;28;20285;-58
2023/08/23 08:35:54;;;;;;;17.00;16.20;;;;;;;-141.02;55.76;43976.47;5092562;28;20288;-65
2023/08/23 08:38:22;;;;;;;17.25;16.38;;;;;;;-141.02;55.41;44253.00;5092773;28;20204;-64
2023/08/23 08:40:49;;;;;;;17.40;16.50;;;;;;;-141.02;53.14;44122.41;5092779;28;20194;-63
2023/08/23 08:43:18;;;;;;;17.25;16.35;;;;;;;-141.02;53.40;44187.72;5092524;28;20189;-60
2023/08/23 08:45:45;;;;;;;16.90;16.05;;;;;;;-141.02;52.48;44045.59;5092342;28;20228;-63
2023/08/23 08:48:12;;;;;;;16.90;16.10;;;;;;;-141.02;52.50;43957.25;5092701;28;20281;-61
2023/08/23 08:50:42;;;;;;;16.92;16.13;;;;;;;-141.02;53.05;44007.19;5092378;28;20755;-57
2023/08/23 08:53:14;;;;;;;17.88;16.98;;;;;;;-141.02;53.14;43993.75;5092326;28;20192;-58
2023/08/23 08:55:42;;;;;;;17.30;16.40;;;;;;;-141.02;52.26;44122.41;5092574;28;20269;-60
2023/08/23 08:58:10;;;;;;;17.08;16.25;;;;;;;-141.02;52.81;44130.09;5092284;28;20312;-64
2023/08/23 09:00:40;;;;;;;16.77;15.98;;;;;;;-141.02;52.76;44272.22;5092183;28;20284;-60
2023/08/23 09:03:07;;;;;;;17.25;16.38;;;;;;;-141.02;48.96;43991.81;5092458;28;20252;-58
2023/08/23 09:05:34;;;;;;;16.90;16.10;;;;;;;-141.02;46.84;43753.69;5092010;28;20190;-62
2023/08/23 09:08:02;;;;;;;16.95;16.15;;;;;;;-141.02;47.89;43722.97;5092124;28;20241;-66
2023/08/23 09:10:29;;;;;;;16.75;15.95;;;;;;;-141.02;48.96;43980.31;5092587;28;20231;-58
2023/08/23 09:12:56;;;;;;;16.90;16.10;;;;;;;-141.02;47.96;43822.84;5092723;28;20580;-58
2023/08/23 09:15:24;;;;;;;16.77;15.98;;;;;;;-141.02;48.43;43822.84;5092285;28;20200;-61
2023/08/23 09:17:54;;;;;;;16.55;15.75;;;;;;;-141.02;47.13;43615.44;5092234;28;20202;-59
2023/08/23 09:20:22;;;;;;;16.77;15.98;;;;;;;-141.02;47.92;43999.50;5092236;28;20193;-66
2023/08/23 09:22:53;;;;;;;16.48;15.68;;;;;;;-141.02;47.05;43746.03;5092223;28;20205;-61
2023/08/23 09:25:21;;;;;;;17.05;16.25;;;;;;;-141.02;48.29;43964.94;5091897;28;20284;-61
2023/08/23 09:27:48;;;;;;;16.88;16.08;;;;;;;-141.02;47.23;43991.81;5092119;28;20221;-61
2023/08/23 09:30:15;;;;;;;16.63;15.82;;;;;;;-141.02;46.96;44036.00;5091829;28;20193;-60
2023/08/23 09:32:42;;;;;;;18.58;17.77;;;;;;;-141.02;46.43;44272.22;5091868;28;20196;-63
2023/08/23 09:35:15;;;;;;;19.52;18.63;;;;;;;-141.02;45.31;44037.91;5091782;28;20189;-61
2023/08/23 09:37:43;;;;;;;20.15;19.15;;;;;;;-141.02;45.39;44172.34;5092160;28;20189;-59
2023/08/23 09:40:19;;;;;;;18.23;17.42;;;;;;;-141.02;45.02;44164.66;5093125;28;20237;-60
2023/08/23 09:42:46;;;;;;;18.35;17.55;;;;;;;-141.02;44.53;44448.91;5096143;28;20193;-61
2023/08/23 09:45:17;;;;;;;18.40;17.60;;;;;;;-141.02;44.14;44514.22;5095749;28;20689;-64
2023/08/23 09:47:50;;;;;;;20.00;18.90;;;;;;;-141.02;43.90;44652.50;5095704;28;20691;-60
2023/08/23 09:50:20;;;;;;;18.50;17.70;;;;;;;-141.02;44.07;44468.13;5096241;28;20185;-63
2023/08/23 09:52:51;;;;;;;20.95;19.95;;;;;;;-141.02;44.09;44437.38;5095900;28;20197;-65
2023/08/23 09:55:18;;;;;;;18.83;18.02;;;;;;;-141.02;45.45;44091.69;5095629;28;20652;-66
2023/08/23 09:57:46;;;;;;;23.45;22.25;;;;;;;-141.02;44.97;44095.53;5095475;28;20793;-66
2023/08/23 10:00:14;;;;;;;18.63;17.83;;;;;;;-141.02;45.36;43346.63;5095698;28;20705;-61
2023/08/23 10:02:42;;;;;;;18.63;17.83;;;;;;;-141.02;45.69;43938.06;5095515;28;20606;-66
2023/08/23 10:05:11;;;;;;;17.98;17.17;;;;;;;-141.02;45.63;44011.03;5095366;28;20198;-66
2023/08/23 10:07:41;;;;;;;18.23;17.42;;;;;;;-141.02;45.70;44145.47;5095591;28;20278;-67
2023/08/23 10:10:10;;;;;;;18.45;17.65;;;;;;;-141.02;44.76;44195.41;5095549;28;20189;-66
2023/08/23 10:12:40;;;;;;;18.52;17.73;;;;;;;-141.02;43.90;44552.63;5095250;28;20193;-65
2023/08/23 10:15:09;;;;;;;18.13;17.33;;;;;;;-141.02;43.37;44687.09;5095268;28;20276;-59
2023/08/23 10:17:37;;;;;;;17.80;17.10;;;;;;;-141.02;42.94;44698.59;5095226;28;20200;-65
2023/08/23 10:20:06;;;;;;;18.67;17.88;;;;;;;-141.02;43.30;44264.53;5095292;28;20314;-67
2023/08/23 10:22:33;;;;;;;19.75;18.85;;;;;;;-141.02;43.33;44272.22;5095140;28;20262;-59
2023/08/23 10:25:03;;;;;;;25.40;24.17;;;;;;;-141.02;43.54;44229.97;5095574;28;20204;-67
2023/08/23 10:27:35;;;;;;;19.70;18.80;;;;;;;-141.02;44.27;44037.91;5094965;28;20225;-63
2023/08/23 10:30:07;;;;;;;19.70;18.80;;;;;;;-141.02;43.42;44324.06;5095215;28;20196;-66
2023/08/23 10:32:37;;;;;;;19.85;18.92;;;;;;;-141.02;42.74;44552.63;5095228;28;20190;-67
2023/08/23 10:35:20;;;;;;;20.00;19.00;;;;;;;-141.02;41.99;44671.72;5095115;28;20239;-67
2023/08/23 10:37:47;;;;;;;19.80;18.90;;;;;;;-141.02;41.31;44871.50;5095119;28;20273;-66
2023/08/23 10:40:18;;;;;;;20.13;19.13;;;;;;;-141.02;41.08;44364.41;5094716;28;20285;-68
2023/08/23 10:42:46;;;;;;;18.05;16.95;;;;;;;-141.02;42.86;44141.63;5094724;28;20235;-66
2023/08/23 10:45:15;;;;;;;16.25;15.45;;;;;;;-141.02;43.17;43876.59;5095233;28;20276;-65
2023/08/23 10:47:43;;;;;;;16.15;15.45;;;;;;;-141.02;42.21;44345.19;5094521;28;20409;-67
2023/08/23 10:50:12;;;;;;;16.45;15.68;;;;;;;-141.02;41.57;44529.59;5094856;28;20193;-64
2023/08/23 10:52:39;;;;;;;15.95;15.25;;;;;;;-141.02;42.00;43630.81;5093587;28;20225;-63
2023/08/23 10:55:07;;;;;;;16.35;15.55;;;;;;;-141.02;43.30;43732.56;5094739;28;20232;-66
2023/08/23 10:57:35;;;;;;;16.40;15.60;;;;;;;-141.02;43.25;43849.72;5094288;28;20677;-68
2023/08/23 11:00:02;;;;;;;16.40;15.60;;;;;;;-141.02;44.37;43469.50;5094731;28;20250;-68
2023/08/23 11:02:32;;;;;;;16.33;15.52;;;;;;;-141.02;45.00;43999.50;5094277;28;20252;-64
2023/08/23 11:04:59;;;;;;;16.50;15.70;;;;;;;-141.02;44.65;44176.19;5094226;28;20654;-65
2023/08/23 11:07:27;;;;;;;16.55;15.75;;;;;;;-141.02;43.59;44464.28;5094142;28;20710;-67
2023/08/23 11:09:54;;;;;;;16.33;15.52;;;;;;;-141.02;43.68;44552.63;5094131;28;20283;-66
2023/08/23 11:12:21;;;;;;;18.05;17.15;;;;;;;-141.02;43.80;44591.03;5094155;28;20667;-67
2023/08/23 11:14:49;;;;;;;16.27;15.48;;;;;;;-141.02;43.31;44502.69;5094438;28;20197;-68
2023/08/23 11:17:17;;;;;;;16.38;15.57;;;;;;;-141.02;43.39;44452.75;5093988;28;20310;-63
2023/08/23 11:19:44;;;;;;;17.13;16.33;;;;;;;-141.02;43.25;44412.41;5094239;28;20196;-67
2023/08/23 11:22:11;;;;;;;16.50;15.70;;;;;;;-141.02;42.24;44541.09;5093939;28;20197;-67
2023/08/23 11:24:39;;;;;;;16.35;15.55;;;;;;;-141.02;41.83;44429.72;5094188;28;20246;-61
2023/08/23 11:27:13;;;;;;;16.08;15.32;;;;;;;-141.02;41.77;44237.66;5094104;28;20225;-61
2023/08/23 11:29:40;;;;;;;16.40;15.60;;;;;;;-141.02;43.92;44279.91;5093865;28;20246;-58
2023/08/23 11:32:08;;;;;;;40.42;38.17;;;;;;;-141.02;44.78;44185.78;5094140;28;20193;-66
2023/08/23 11:34:36;;;;;;;47.33;44.90;;;;;;;-141.02;44.15;44107.06;5093685;28;20766;-62
2023/08/23 11:37:07;;;;;;;51.33;48.65;;;;;;;-141.02;43.99;44049.44;5093877;28;20288;-62
2023/08/23 11:39:34;;;;;;;25.77;24.58;;;;;;;-141.02;44.69;43949.56;5093840;28;20276;-60
2023/08/23 11:42:02;;;;;;;26.83;25.52;;;;;;;-141.02;43.83;44091.69;5093583;28;20193;-63
2023/08/23 11:44:29;;;;;;;25.50;24.30;;;;;;;-141.02;44.09;43968.78;5093527;28;20219;-58
2023/08/23 11:46:58;;;;;;;16.45;15.65;;;;;;;-141.02;43.99;44037.91;5093333;28;20767;-63